Terminal Aerodrome Forecast
Issued by NWS Raleigh/Durham, NC

Home | Current Version | Previous Version | Text Only | Print | Product List | Glossary On
Versions: 1 2 3 4 5 6 7 8 9 10 11 12 13 14 15 16 17 18 19 20 21 22 23 24 25 26
000
FTUS42 KRAH 261141
TAFGSO
TAF
KGSO 261141Z 2612/2712 21012G24KT P6SM VCSH SCT025 OVC060
     FM261700 26013G25KT P6SM VCTS SCT030 BKN060CB
      TEMPO 2617/2619 VRB18G32KT 2SM TSRA BR SCT020 BKN035CB
     FM261900 27016G32KT P6SM SCT080
     FM270100 30010G20KT P6SM SCT200=

USA.gov is the U.S. government's official web portal to all federal, state and local government web resources and services.